Forside
METAR-TAF:

METAR-TAF

Lufthavne :

Burnett County Airport

Siren, Wisconsin, USA

Breddekreds: 45-49-22N, længdekreds: 092-22-21W, højde: 301 m

Aktuelle vejr

Denne rapport blev lavet for 29 minutter siden, kl. 10:55 UTC
Vind 6 kt fra sydøst
Temperatur 0°C
Fugtighed 69%
Tryk 1018 hPa
Sigt: 16.1 km
Brudte skyer i en højde af 5000 ft
Overskyet i en højde af 6500 ft

METAR: KRZN 241055Z AUTO 13006KT 10SM BKN050 OVC065 00/M05 A3006 RMK AO2 T00001049

Tid: 05:24 (11:24 UTC)


TAF: fraværende

Vejrobservationer og prognoser fra mere end 4000 lufthavne (METAR og TAF).

De gule og røde prikker repræsenterer de meteorologiske stationer.

Flyt musen over at se navnet på stationen.

Så klik over at se vejr observationer og prognoser.

At skifte det kort: Klik på de grønne knapper med et sort kors for at zoome ind; på den grønne knap med en bindestreg for at zoome ud; eller på de grønne pile for tilstødende kort.


METAR-TAF: